sensor_id;sensor_type;location;lat;lon;timestamp;temperature;humidity
25532;DHT22;13429;48.816;9.118;2022-08-21T03:51:40;15.30;69.90
25532;DHT22;13429;48.816;9.118;2022-08-21T03:54:06;15.20;70.30
25532;DHT22;13429;48.816;9.118;2022-08-21T03:56:31;15.20;70.30
25532;DHT22;13429;48.816;9.118;2022-08-21T03:58:57;15.10;70.50
25532;DHT22;13429;48.816;9.118;2022-08-21T04:01:23;15.10;70.90
25532;DHT22;13429;48.816;9.118;2022-08-21T04:03:49;15.10;71.00
25532;DHT22;13429;48.816;9.118;2022-08-21T04:06:14;15.10;71.00
25532;DHT22;13429;48.816;9.118;2022-08-21T04:08:40;15.10;71.00
25532;DHT22;13429;48.816;9.118;2022-08-21T04:11:08;15.10;71.00
25532;DHT22;13429;48.816;9.118;2022-08-21T04:13:36;15.10;70.80
25532;DHT22;13429;48.816;9.118;2022-08-21T04:16:02;15.10;70.80
25532;DHT22;13429;48.816;9.118;2022-08-21T04:18:28;15.10;70.50
25532;DHT22;13429;48.816;9.118;2022-08-21T04:20:56;15.10;70.60
25532;DHT22;13429;48.816;9.118;2022-08-21T04:23:23;15.10;70.70
25532;DHT22;13429;48.816;9.118;2022-08-21T04:25:49;15.10;70.60
25532;DHT22;13429;48.816;9.118;2022-08-21T04:28:14;15.10;70.80
25532;DHT22;13429;48.816;9.118;2022-08-21T04:30:40;15.10;70.70
25532;DHT22;13429;48.816;9.118;2022-08-21T04:33:06;15.10;70.80
25532;DHT22;13429;48.816;9.118;2022-08-21T04:35:32;15.10;70.70
25532;DHT22;13429;48.816;9.118;2022-08-21T04:37:57;15.20;70.50
25532;DHT22;13429;48.816;9.118;2022-08-21T04:40:25;15.10;70.80
25532;DHT22;13429;48.816;9.118;2022-08-21T04:43:00;15.10;71.10
25532;DHT22;13429;48.816;9.118;2022-08-21T04:45:34;15.20;70.90
25532;DHT22;13429;48.816;9.118;2022-08-21T04:48:03;15.20;70.90
25532;DHT22;13429;48.816;9.118;2022-08-21T04:50:36;15.20;71.00
25532;DHT22;13429;48.816;9.118;2022-08-21T04:53:10;15.20;70.80
25532;DHT22;13429;48.816;9.118;2022-08-21T04:55:38;15.30;70.90
25532;DHT22;13429;48.816;9.118;2022-08-21T04:58:09;15.30;70.90
25532;DHT22;13429;48.816;9.118;2022-08-21T05:00:36;15.30;70.60
25532;DHT22;13429;48.816;9.118;2022-08-21T05:03:03;15.30;70.40
25532;DHT22;13429;48.816;9.118;2022-08-21T05:05:30;15.30;70.30
25532;DHT22;13429;48.816;9.118;2022-08-21T05:07:57;15.40;70.30
25532;DHT22;13429;48.816;9.118;2022-08-21T05:10:24;15.40;70.30
25532;DHT22;13429;48.816;9.118;2022-08-21T05:12:50;15.40;70.10
25532;DHT22;13429;48.816;9.118;2022-08-21T05:15:16;15.40;69.90
25532;DHT22;13429;48.816;9.118;2022-08-21T05:17:42;15.40;70.30
25532;DHT22;13429;48.816;9.118;2022-08-21T05:20:09;15.50;70.40
25532;DHT22;13429;48.816;9.118;2022-08-21T05:22:35;15.50;70.60
25532;DHT22;13429;48.816;9.118;2022-08-21T05:25:01;15.60;70.50
25532;DHT22;13429;48.816;9.118;2022-08-21T05:27:27;15.60;70.50
25532;DHT22;13429;48.816;9.118;2022-08-21T05:29:55;15.60;70.20
25532;DHT22;13429;48.816;9.118;2022-08-21T05:32:21;15.70;70.00
25532;DHT22;13429;48.816;9.118;2022-08-21T05:34:46;15.70;70.00
25532;DHT22;13429;48.816;9.118;2022-08-21T05:37:12;15.80;69.90
25532;DHT22;13429;48.816;9.118;2022-08-21T05:39:38;15.90;69.50
25532;DHT22;13429;48.816;9.118;2022-08-21T05:42:04;16.10;69.40
25532;DHT22;13429;48.816;9.118;2022-08-21T05:44:30;16.20;68.90
25532;DHT22;13429;48.816;9.118;2022-08-21T05:47:01;16.20;68.70
25532;DHT22;13429;48.816;9.118;2022-08-21T05:49:27;16.20;68.90
25532;DHT22;13429;48.816;9.118;2022-08-21T05:51:52;16.30;68.90
25532;DHT22;13429;48.816;9.118;2022-08-21T18:04:55;27.70;30.30
25532;DHT22;13429;48.816;9.118;2022-08-21T18:07:21;27.40;31.50
25532;DHT22;13429;48.816;9.118;2022-08-21T18:09:47;27.30;31.90
25532;DHT22;13429;48.816;9.118;2022-08-21T18:12:12;27.00;32.50
25532;DHT22;13429;48.816;9.118;2022-08-21T18:14:39;26.80;32.60
25532;DHT22;13429;48.816;9.118;2022-08-21T18:17:08;26.60;33.10
25532;DHT22;13429;48.816;9.118;2022-08-21T18:19:34;26.40;33.20
25532;DHT22;13429;48.816;9.118;2022-08-21T18:22:00;26.20;33.70
25532;DHT22;13429;48.816;9.118;2022-08-21T18:24:26;26.00;33.90
25532;DHT22;13429;48.816;9.118;2022-08-21T18:26:52;25.80;34.50
25532;DHT22;13429;48.816;9.118;2022-08-21T18:29:19;25.70;34.90
25532;DHT22;13429;48.816;9.118;2022-08-21T18:31:46;25.40;35.40
25532;DHT22;13429;48.816;9.118;2022-08-21T18:36:48;25.10;35.80
25532;DHT22;13429;48.816;9.118;2022-08-21T18:39:14;25.00;36.00
25532;DHT22;13429;48.816;9.118;2022-08-21T18:41:40;24.80;35.90
25532;DHT22;13429;48.816;9.118;2022-08-21T18:44:05;24.80;36.40
25532;DHT22;13429;48.816;9.118;2022-08-21T18:46:31;24.70;36.60
25532;DHT22;13429;48.816;9.118;2022-08-21T18:48:56;24.50;37.00
25532;DHT22;13429;48.816;9.118;2022-08-21T18:51:22;24.40;37.10
25532;DHT22;13429;48.816;9.118;2022-08-21T18:53:48;24.20;37.30
